Date,TemperatureHighF,TemperatureAvgF,TemperatureLowF,DewpointHighF,DewpointAvgF,DewpointLowF,HumidityHigh,HumidityAvg,HumidityLow,PressureMaxIn,PressureMinIn,WindSpeedMaxMPH,WindSpeedAvgMPH,GustSpeedMaxMPH,PrecipitationSumIn
2012-1-1,50.9,48.2,45.1,46.2,41.4,38.5,85,77,68,30.08,29.65,0,0,9,0.00
2012-1-2,50.2,40.8,34.5,44.9,26.2,21.7,82,56,47,29.79,29.64,0,0,13,0.00
2012-1-3,34.5,27.1,17.2,23.5,13.1,2.4,68,55,45,30.12,29.77,7,1,27,0.00
2012-1-4,28.6,21.7,14.7,16.1,7.9,2.2,62,55,44,30.21,29.94,7,0,26,0.00
2012-1-5,39.2,34.2,28.6,25.0,21.1,16.1,61,58,54,29.95,29.81,7,0,25,0.00
2012-1-6,52.0,44.6,36.9,35.0,31.1,24.8,72,59,50,29.93,29.71,0,0,2,0.00
2012-1-7,59.7,52.5,45.1,41.8,36.6,30.8,66,55,46,29.95,29.69,10,0,13,0.00
2012-1-8,48.2,42.5,34.7,30.7,26.7,19.1,56,53,51,30.29,29.95,7,0,22,0.00
2012-1-9,39.0,36.1,32.7,29.5,22.4,18.3,69,57,49,30.30,29.97,7,0,24,0.00
2012-1-10,46.4,41.2,35.8,32.2,28.9,24.4,72,61,55,29.98,29.84,3,0,25,0.00
2012-1-11,45.3,42.4,39.9,36.1,31.3,27.7,82,65,57,30.08,29.82,10,0,24,0.02
2012-1-12,45.1,43.1,41.2,43.2,40.5,36.7,93,90,84,29.81,29.41,29,5,30,1.50
2012-1-13,49.1,37.7,30.0,46.9,29.8,17.3,94,74,56,29.78,29.23,7,0,22,0.02
2012-1-14,33.1,31.0,28.6,20.6,19.0,15.3,63,61,57,30.06,29.78,7,0,27,0.00
2012-1-15,28.6,21.6,16.7,15.3,5.4,0.5,57,49,40,30.56,30.06,10,1,27,0.00
2012-1-16,36.9,26.5,17.4,28.8,13.5,3.2,74,57,51,30.57,30.15,3,0,22,0.00
2012-1-17,52.7,42.3,36.3,47.4,38.0,28.8,90,84,74,30.14,29.51,3,0,5,0.00
2012-1-18,53.2,38.5,25.5,47.5,23.7,10.8,81,55,46,30.16,29.52,10,1,27,0.00
2012-1-19,36.5,28.8,21.4,26.3,16.3,6.6,73,59,46,30.24,29.90,7,0,14,0.00
2012-1-20,36.5,30.3,25.9,25.3,15.1,10.1,67,53,44,30.27,29.90,7,0,26,0.00
2012-1-21,28.9,26.2,23.5,23.0,19.6,12.5,88,77,50,30.26,29.95,13,2,27,0.00
2012-1-22,34.2,26.5,19.6,28.8,19.6,11.1,81,75,69,30.51,30.27,13,1,27,0.00
2012-1-23,52.3,40.9,34.3,50.9,38.1,29.1,95,90,81,30.40,29.85,10,0,27,0.24
2012-1-24,52.3,48.9,45.0,50.9,42.1,35.1,95,78,63,30.06,29.85,3,0,9,0.00
2012-1-25,39.7,38.2,37.2,28.3,27.4,26.9,66,65,63,30.22,30.18,0,0,13,0.00
2012-1-26,39.4,37.2,34.9,36.6,30.4,26.9,91,77,66,30.21,29.81,7,0,25,0.10
2012-1-27,57.9,48.4,39.4,56.8,43.6,33.1,96,85,62,29.81,29.30,3,0,23,0.07
2012-1-28,46.0,43.3,39.7,33.4,30.3,22.6,64,60,46,30.02,29.81,3,0,26,0.00
2012-1-29,43.3,39.6,35.2,23.4,20.6,17.2,51,46,41,30.17,30.00,3,0,10,0.00
2012-1-30,40.3,37.4,35.2,26.4,20.3,17.5,61,50,44,30.27,29.99,3,0,24,0.00
2012-1-31,56.3,48.2,38.1,36.3,30.9,19.9,62,51,45,30.23,29.99,0,0,4,0.00
2012-2-1,60.6,55.7,50.7,46.0,40.6,35.2,69,57,50,30.00,29.83,0,0,13,0.00
2012-2-2,51.8,43.5,37.2,38.8,31.5,24.2,67,62,58,30.21,29.97,7,1,27,0.00
2012-2-3,42.6,37.2,31.6,24.8,21.9,18.3,60,54,47,30.43,30.21,7,1,27,0.00
2012-2-4,46.0,42.1,37.6,28.4,26.3,24.2,58,53,50,30.31,30.08,3,0,22,0.00
2012-2-5,38.5,35.4,33.1,24.2,21.5,19.8,62,57,51,30.15,30.07,10,1,27,0.00
2012-2-6,49.6,41.3,34.9,32.2,26.5,21.1,61,55,50,30.14,29.93,3,0,8,0.00
2012-2-7,46.2,43.5,40.1,31.1,29.2,26.5,61,57,53,30.20,29.92,7,0,22,0.00
2012-2-8,39.7,34.7,32.2,29.4,21.9,15.7,83,60,48,30.30,30.06,7,0,25,0.00
2012-2-9,43.9,37.2,32.4,28.5,25.3,22.4,82,63,45,30.12,30.03,7,0,25,0.00
2012-2-10,44.8,40.0,35.8,29.9,26.0,23.3,72,57,51,30.12,29.90,0,0,19,0.00
2012-2-11,38.5,36.4,33.6,30.9,28.0,22.3,84,72,57,29.90,29.53,10,1,27,0.06
2012-2-12,33.4,28.1,21.9,23.3,13.7,4.2,68,54,42,29.94,29.62,7,0,22,0.00
2012-2-13,41.7,35.1,28.9,23.4,19.9,15.2,61,54,45,30.00,29.90,0,0,10,0.00
2012-2-14,45.7,41.6,37.9,35.7,24.5,19.0,77,51,37,30.09,29.99,0,0,7,0.00
2012-2-15,45.7,42.9,40.8,38.6,36.4,32.1,86,78,68,30.25,30.03,0,0,10,0.00
2012-2-16,43.5,41.3,39.0,40.5,34.5,30.9,89,77,68,30.27,29.99,0,0,10,0.00
2012-2-17,49.3,45.6,43.2,42.2,35.2,26.0,90,69,45,30.00,29.88,7,0,26,0.00
2012-2-18,47.1,41.6,36.5,35.3,27.0,22.7,74,56,46,30.06,29.85,10,0,22,0.00
2012-2-19,42.6,39.3,36.0,30.4,25.4,22.3,69,58,47,30.07,29.91,10,1,27,0.00
2012-2-20,43.5,37.4,32.5,23.0,20.5,17.6,61,51,39,30.32,29.94,13,2,28,0.00
2012-2-21,46.0,40.4,33.6,38.5,27.7,17.8,76,61,45,30.33,29.84,7,0,14,0.00
2012-2-22,55.4,49.4,45.1,41.2,37.3,32.9,77,64,43,29.83,29.47,3,0,9,0.00
2012-2-23,56.5,51.1,46.6,42.8,36.9,29.0,83,60,45,29.75,29.35,7,0,25,0.00
2012-2-24,46.6,40.8,36.7,41.5,36.0,28.8,92,84,51,29.73,29.31,13,2,27,0.36
2012-2-25,44.2,41.1,35.4,35.7,26.3,16.7,72,56,46,29.97,29.39,7,0,25,0.00
2012-2-26,41.7,36.5,30.7,22.0,18.7,15.7,56,48,42,30.42,29.98,7,0,14,0.00
2012-2-27,52.0,45.5,36.5,39.0,32.5,21.0,72,61,50,30.41,30.05,7,0,9,0.00
2012-2-28,51.4,44.2,41.0,34.9,26.1,23.5,54,49,44,30.37,30.08,10,0,27,0.00
2012-2-29,41.9,40.1,38.3,38.0,31.4,24.2,92,72,50,30.35,29.74,16,3,28,0.37
2012-3-1,42.1,39.6,37.6,38.3,36.2,31.7,92,87,79,29.93,29.63,19,2,26,0.16
2012-3-2,42.1,38.1,33.8,37.9,32.1,27.7,88,79,75,30.11,29.77,7,1,25,0.04
2012-3-3,54.7,48.1,41.4,49.2,39.2,26.9,94,75,40,29.78,29.43,3,0,22,0.09
2012-3-4,46.6,42.2,37.2,27.2,25.0,23.2,62,50,45,29.72,29.55,3,0,22,0.00
2012-3-5,43.2,36.6,30.4,26.0,17.7,5.2,63,47,32,30.36,29.72,7,0,27,0.00
2012-3-6,41.7,34.0,27.0,26.5,16.8,6.9,61,49,37,30.60,30.36,7,0,27,0.00
2012-3-7,59.4,48.4,38.1,44.2,34.3,25.4,73,59,43,30.56,30.29,0,0,6,0.00
2012-3-8,68.2,59.8,52.5,52.5,49.2,44.2,79,68,57,30.29,29.80,7,0,13,0.00
2012-3-9,63.0,46.4,38.5,51.5,30.4,21.3,74,54,39,30.23,29.79,10,0,25,0.00
2012-3-10,41.2,36.3,30.0,21.6,16.8,11.4,51,45,41,30.50,30.24,7,0,28,0.00
2012-3-11,56.8,46.9,37.8,35.4,28.1,20.0,55,48,43,30.50,30.29,0,0,8,0.00
2012-3-12,66.0,55.8,48.7,45.0,39.0,33.6,62,54,40,30.32,30.10,0,0,6,0.00
2012-3-13,70.2,62.3,55.0,57.4,52.4,43.8,84,71,57,30.10,29.88,0,0,6,0.00
2012-3-14,67.6,63.7,59.5,55.7,39.6,28.4,69,44,25,30.15,29.93,7,0,19,0.00
2012-3-15,60.3,47.1,44.1,42.0,40.3,33.2,87,78,36,30.31,30.17,7,1,27,0.00
2012-3-16,49.6,45.9,43.0,45.3,42.0,39.9,90,86,81,30.27,30.09,3,0,22,0.00
2012-3-17,57.6,51.1,45.3,49.5,45.3,41.7,88,81,71,30.34,30.14,7,0,27,0.00
2012-3-18,60.1,51.5,47.1,52.1,46.2,42.8,87,82,72,30.35,30.17,0,0,2,0.00
2012-3-19,68.2,60.1,50.9,57.6,51.9,46.6,87,75,59,30.20,30.13,0,0,4,0.00
2012-3-20,69.4,61.0,54.5,61.6,55.3,50.4,90,82,72,30.31,30.19,0,0,4,0.00
2012-3-21,66.0,59.7,56.5,59.8,56.1,54.4,93,88,80,30.34,30.26,3,0,6,0.00
2012-3-22,72.5,63.1,56.3,62.2,57.8,54.0,93,83,69,30.27,30.06,0,0,4,0.00
2012-3-23,72.3,65.9,60.3,59.9,53.8,43.0,83,66,46,30.08,30.00,13,1,22,0.00
2012-3-24,62.4,58.5,50.2,47.5,37.2,26.8,64,46,32,30.07,29.96,7,0,27,0.00
2012-3-25,51.3,48.1,46.0,43.5,40.4,37.1,78,75,63,29.98,29.71,13,2,28,0.00
2012-3-26,54.1,48.2,36.9,46.0,30.5,12.6,79,53,31,30.09,29.66,10,2,28,0.00
2012-3-27,49.5,40.5,31.3,19.6,11.1,6.9,37,30,23,30.25,30.09,10,1,28,0.00
2012-3-28,64.9,54.7,46.0,51.0,37.4,19.0,67,52,32,30.12,29.51,0,0,7,0.00
2012-3-29,62.4,53.8,45.9,51.1,38.6,30.2,67,57,49,29.99,29.54,10,1,27,0.00
2012-3-30,53.2,46.1,41.4,35.7,28.8,24.4,64,51,38,30.06,29.92,10,0,27,0.00
2012-3-31,46.8,41.4,38.8,38.4,36.5,33.4,90,83,65,29.98,29.84,19,4,27,0.28
2012-4-1,51.8,47.3,43.0,44.1,39.8,36.3,88,75,63,29.88,29.58,0,0,5,0.00
2012-4-2,55.0,48.0,42.4,44.0,32.9,22.7,89,59,33,29.85,29.56,13,1,27,0.08
2012-4-3,62.4,51.7,42.4,27.1,24.6,21.4,49,36,25,29.92,29.73,7,0,18,0.00
2012-4-4,64.8,59.0,49.8,34.5,28.9,23.2,44,32,27,29.74,29.49,7,0,27,0.00
2012-4-5,55.6,49.0,44.2,31.9,29.6,26.4,56,47,39,29.90,29.70,10,0,27,0.00
2012-4-6,55.2,47.2,39.9,28.0,26.0,24.2,56,44,32,30.01,29.85,10,0,26,0.00
2012-4-7,58.5,50.5,43.3,28.9,24.2,21.4,44,36,26,30.06,29.91,10,0,27,0.00
2012-4-8,64.8,55.9,47.1,37.0,27.6,23.4,42,34,26,29.99,29.62,7,0,22,0.00
2012-4-9,62.8,56.7,50.4,36.1,29.4,26.2,49,36,28,29.71,29.57,0,0,16,0.00
2012-4-10,60.1,54.6,49.8,38.9,33.7,29.2,59,46,35,29.76,29.62,3,0,13,0.00
2012-4-11,53.2,49.1,44.8,35.4,33.2,30.5,65,55,43,29.87,29.74,3,0,19,0.00
2012-4-12,57.7,51.5,44.2,37.7,35.1,32.7,69,54,40,30.10,29.87,10,0,23,0.00
2012-4-13,61.5,53.8,46.6,39.6,34.0,31.3,57,48,35,30.18,30.07,3,0,22,0.00
2012-4-14,68.4,61.0,52.9,45.1,36.8,32.4,48,41,31,30.19,29.99,3,0,10,0.00
2012-4-15,76.5,69.0,61.2,60.0,53.5,42.8,67,58,44,30.01,29.92,0,0,12,0.00
2012-4-16,82.2,73.4,67.1,62.8,58.8,56.0,69,61,51,30.00,29.87,0,0,9,0.00
2012-4-17,76.3,72.6,65.1,60.7,47.9,39.2,64,43,28,30.11,29.87,7,0,19,0.00
2012-4-18,64.2,56.9,50.5,43.2,37.2,33.0,67,48,39,30.24,30.10,13,1,24,0.00
2012-4-19,65.3,57.2,51.1,49.4,46.3,42.3,74,67,52,30.10,29.99,0,0,6,0.00
2012-4-20,67.5,60.8,55.0,53.0,49.4,45.5,81,67,49,30.01,29.83,0,0,13,0.00
2012-4-21,67.1,62.1,57.9,58.9,56.4,53.3,89,82,73,29.84,29.62,0,0,11,0.00
2012-4-22,59.2,50.5,46.9,54.9,46.2,43.4,94,85,75,29.76,29.28,35,2,35,1.50
2012-4-23,54.5,50.3,46.2,53.4,45.7,38.4,96,85,72,29.37,29.11,7,0,11,1.50
2012-4-24,58.8,50.7,43.0,44.1,35.5,31.1,76,58,35,29.67,29.37,7,0,10,0.00
2012-4-25,59.7,54.3,46.9,42.5,36.3,32.5,61,51,40,29.88,29.68,0,0,25,0.00
2012-4-26,61.0,53.9,47.8,54.2,46.2,34.5,91,76,46,29.89,29.54,7,0,25,0.00
2012-4-27,57.4,49.6,43.5,54.8,35.9,28.7,91,60,48,30.12,29.55,10,1,26,0.00
2012-4-28,58.8,49.4,40.5,34.4,30.8,27.8,61,49,36,30.22,30.06,7,0,13,0.00
2012-4-29,61.5,53.9,46.8,34.3,28.0,23.5,54,38,26,30.23,30.03,10,0,25,0.00
2012-4-30,57.4,52.5,47.7,44.0,30.2,22.7,71,43,32,30.32,30.18,3,0,14,0.00
2012-5-1,66.6,58.8,52.0,57.2,52.4,43.9,91,80,70,30.18,29.93,10,0,14,0.10
2012-5-2,55.6,52.1,49.8,50.2,47.7,46.4,89,85,81,30.16,30.06,13,2,27,0.04
2012-5-3,58.3,54.5,51.4,53.6,51.0,48.1,91,88,83,30.17,30.05,0,0,8,0.04
2012-5-4,70.9,61.4,54.3,63.3,57.2,51.4,94,86,77,30.08,29.82,0,0,11,0.04
2012-5-5,63.5,58.5,55.6,57.9,54.7,52.5,92,87,81,30.02,29.85,7,0,14,0.00
2012-5-6,64.2,59.0,55.6,54.6,50.7,44.6,88,75,58,30.09,30.00,3,0,13,0.00
2012-5-7,64.6,58.5,54.7,52.4,46.7,42.8,78,65,49,30.12,30.06,0,0,10,0.00
2012-5-8,66.0,60.1,56.1,56.1,52.5,46.0,87,76,67,30.07,29.81,0,0,24,0.00
2012-5-9,68.7,64.1,58.8,65.1,61.2,54.9,94,90,85,29.81,29.55,0,0,18,0.10
2012-5-10,64.9,60.2,55.9,56.1,48.0,39.1,89,66,45,29.80,29.47,10,0,25,0.02
2012-5-11,68.7,60.7,51.6,43.9,39.3,35.8,62,47,31,30.08,29.80,7,0,27,0.00
2012-5-12,76.1,68.1,58.8,51.2,43.7,36.3,48,42,32,30.20,30.08,0,0,7,0.00
2012-5-13,78.6,72.9,67.8,59.5,53.4,48.3,64,51,40,30.15,30.03,0,0,10,0.00
2012-5-14,72.1,68.3,64.9,60.8,59.4,57.0,82,73,62,30.13,30.06,0,0,5,0.00
2012-5-15,65.1,63.6,61.9,62.7,59.8,57.7,93,88,81,30.10,29.91,0,0,10,0.06
2012-5-16,76.8,68.9,61.3,67.3,63.4,59.5,95,83,68,29.92,29.79,0,0,5,0.02
2012-5-17,72.1,64.6,56.1,60.5,46.6,40.3,69,53,41,30.11,29.86,10,0,27,0.00
2012-5-18,68.4,63.3,58.3,51.4,44.7,40.9,61,51,39,30.21,30.10,10,0,25,0.00
2012-5-19,75.4,66.6,58.8,52.7,46.5,40.5,55,49,38,30.16,30.07,10,0,24,0.00
2012-5-20,73.0,67.7,62.8,53.1,47.3,40.5,69,49,32,30.21,30.13,10,1,27,0.00
2012-5-21,63.0,59.8,57.4,59.8,56.6,52.5,95,89,69,30.19,29.97,13,2,26,0.96
2012-5-22,69.4,64.5,59.7,63.4,61.2,58.3,96,89,81,29.97,29.78,13,1,27,0.15
2012-5-23,75.4,69.1,65.8,67.3,63.8,61.7,89,83,75,30.02,29.83,3,0,27,0.00
2012-5-24,67.1,64.9,62.4,64.9,62.5,60.9,95,92,87,30.17,30.02,10,0,15,0.20
2012-5-25,73.2,65.3,59.9,68.2,63.1,58.8,97,93,84,30.18,30.08,3,0,14,0.04
2012-5-26,82.6,74.9,67.6,73.0,69.3,65.3,94,83,71,30.11,30.02,0,0,16,0.00
2012-5-27,81.3,75.6,68.2,71.2,66.2,59.6,86,73,59,30.15,29.98,0,0,10,0.08
2012-5-28,88.0,79.9,72.7,72.9,70.0,66.9,83,72,60,29.97,29.85,0,0,8,0.00
2012-5-29,89.8,83.6,76.3,74.8,71.8,65.9,81,68,55,29.87,29.66,0,0,25,0.00
2012-5-30,79.5,76.0,72.7,67.6,65.5,61.2,81,70,55,29.75,29.67,0,0,19,0.00
2012-5-31,79.2,74.6,69.1,66.0,57.3,52.3,82,57,41,29.89,29.67,7,0,25,0.00
2012-6-1,73.2,67.7,64.2,61.2,55.9,49.2,85,67,52,29.99,29.76,13,2,26,0.00
2012-6-2,76.8,69.5,64.2,66.3,59.2,49.8,95,72,50,29.75,29.61,3,0,25,0.19
2012-6-3,77.2,68.9,62.6,58.3,53.6,49.6,69,59,45,29.74,29.60,7,0,13,0.00
2012-6-4,66.2,60.1,55.2,55.3,51.7,46.0,88,74,62,29.79,29.57,13,2,27,0.14
2012-6-5,65.3,59.8,53.6,52.8,49.1,45.2,77,68,56,29.92,29.77,13,0,27,0.00
2012-6-6,72.1,65.4,58.3,58.2,54.5,52.0,81,69,53,29.98,29.89,0,0,8,0.00
2012-6-7,76.8,69.0,62.1,59.4,57.1,54.2,82,67,47,29.95,29.87,3,0,24,0.00
2012-6-8,83.1,74.0,64.6,60.7,57.6,55.1,74,58,39,29.92,29.78,3,0,11,0.00
2012-6-9,82.0,75.4,71.6,63.4,59.1,55.6,65,57,52,29.95,29.82,0,0,9,0.00
2012-6-10,83.1,76.1,71.4,67.7,64.6,61.9,76,68,59,30.15,29.95,7,0,26,0.00
2012-6-11,75.7,71.2,66.2,64.1,59.8,51.3,83,68,43,30.24,30.13,10,0,27,0.00
2012-6-12,72.5,68.0,66.0,66.1,64.0,60.5,94,87,79,30.16,29.87,7,0,14,0.10
2012-6-13,70.0,66.6,64.8,65.5,63.9,62.7,96,91,81,30.04,29.83,13,1,27,0.16
2012-6-14,73.8,69.0,65.5,64.2,61.4,58.9,91,77,64,30.23,30.03,13,1,26,0.00
2012-6-15,76.8,70.8,64.2,60.4,56.4,53.5,80,61,48,30.27,30.21,7,0,27,0.00
2012-6-16,76.3,69.9,64.8,59.0,56.2,51.7,78,63,45,30.30,30.21,7,0,24,0.00
2012-6-17,69.4,65.1,61.7,58.5,56.6,54.2,80,74,68,30.22,30.07,3,0,25,0.00
2012-6-18,71.4,65.3,59.7,57.6,55.5,53.0,79,71,60,30.13,30.06,0,0,27,0.00
2012-6-19,77.7,69.9,63.9,67.2,62.3,57.4,83,77,68,30.15,30.03,0,0,5,0.00
2012-6-20,95.2,85.3,71.8,76.2,72.6,66.7,87,68,52,30.05,29.89,0,0,9,0.00
2012-6-21,95.9,90.3,83.1,73.9,72.2,69.6,69,56,47,29.91,29.73,3,0,10,0.00
2012-6-22,94.3,84.8,73.9,73.9,71.2,67.5,82,65,48,29.80,29.70,13,0,25,0.02
2012-6-23,84.6,79.0,72.3,70.0,63.3,56.7,86,61,41,29.95,29.78,7,0,15,0.00
2012-6-24,84.9,78.3,70.9,65.6,60.7,56.2,72,56,39,29.99,29.86,0,0,22,0.00
2012-6-25,75.4,71.0,65.7,69.6,63.5,54.4,86,77,67,29.86,29.61,7,0,13,0.11
2012-6-26,73.8,67.8,59.9,55.8,52.7,49.5,69,59,47,29.75,29.65,7,0,16,0.00
2012-6-27,82.8,75.0,66.4,58.0,53.8,50.5,61,48,37,29.80,29.68,7,0,13,0.00
2012-6-28,89.8,80.8,71.1,64.6,60.2,54.8,61,50,42,29.81,29.67,7,0,22,0.00
2012-6-29,94.6,86.1,74.8,74.5,69.9,63.6,78,59,50,29.69,29.58,0,0,9,0.00
2012-6-30,94.3,88.1,82.6,72.3,66.1,61.4,61,49,35,29.75,29.62,3,0,27,0.00
2012-7-1,95.2,87.2,79.0,71.7,67.3,60.7,63,52,44,29.83,29.71,3,0,11,0.00
2012-7-2,87.4,83.0,77.7,62.4,59.7,57.3,52,46,39,29.89,29.82,7,0,24,0.00
2012-7-3,90.3,83.4,75.9,69.2,63.2,59.2,65,51,41,29.93,29.78,3,0,25,0.00
2012-7-4,92.8,85.1,75.6,72.9,69.9,66.0,75,61,50,29.83,29.67,7,0,19,0.02
2012-7-5,93.9,87.7,82.2,74.6,68.9,57.4,72,55,31,29.83,29.67,10,0,19,0.00
2012-7-6,90.7,83.9,76.6,71.1,67.3,62.6,71,58,41,29.90,29.81,3,0,25,0.00
2012-7-7,96.6,88.4,81.3,73.8,71.1,68.1,70,57,42,29.84,29.72,7,0,14,0.06
2012-7-8,91.2,83.7,78.4,71.6,68.2,62.0,79,61,44,29.84,29.76,3,0,27,0.06
2012-7-9,84.4,79.4,75.4,63.7,60.4,57.6,60,52,45,29.94,29.83,3,0,27,0.00
2012-7-10,82.8,78.3,74.1,67.8,61.3,55.7,70,56,45,30.06,29.93,3,0,27,0.00
2012-7-11,84.0,78.8,75.4,70.6,65.5,60.8,79,65,47,30.15,30.04,3,0,9,0.00
2012-7-12,86.2,79.8,74.1,68.3,64.3,62.1,74,60,46,30.18,30.10,0,0,13,0.00
2012-7-13,89.4,82.4,76.6,70.7,66.5,62.4,71,59,50,30.18,30.11,0,0,9,0.00
2012-7-14,85.8,81.0,76.1,70.9,66.3,63.2,74,61,51,30.17,30.09,3,0,13,0.00
2012-7-15,88.0,82.1,77.2,77.1,72.3,67.9,80,72,66,30.11,29.88,0,0,2,0.00
2012-7-16,90.3,83.2,74.1,73.4,70.5,68.6,84,67,52,29.90,29.75,0,0,25,0.00
2012-7-17,95.2,87.9,78.6,72.2,68.5,65.4,65,53,44,29.82,29.70,0,0,9,0.00
2012-7-18,98.2,86.4,76.8,77.3,73.2,71.1,88,66,47,29.86,29.71,7,0,11,0.18
2012-7-19,79.2,75.7,72.3,72.4,66.3,61.0,82,73,66,29.97,29.83,10,1,28,0.00
2012-7-20,73.9,66.9,61.5,66.0,62.5,58.8,92,86,71,30.03,29.91,13,2,28,0.94
2012-7-21,75.2,70.0,64.2,63.1,60.6,57.9,88,73,57,30.10,30.00,7,0,22,0.00
2012-7-22,81.0,75.1,69.6,65.7,62.5,58.2,75,65,49,30.14,30.07,0,0,25,0.00
2012-7-23,85.5,78.7,73.4,76.3,70.7,65.0,82,77,68,30.09,29.74,0,0,8,0.00
2012-7-24,91.2,84.1,77.2,75.4,70.4,62.3,83,65,46,29.77,29.56,3,0,15,0.00
2012-7-25,83.7,77.4,70.7,62.1,57.9,53.7,59,51,43,29.86,29.70,7,0,27,0.00
2012-7-26,89.4,79.6,73.4,75.8,67.9,60.7,86,68,52,29.77,29.58,7,0,28,0.00
2012-7-27,89.2,82.2,75.2,74.3,71.5,69.7,84,71,58,29.83,29.63,0,0,10,0.00
2012-7-28,84.4,75.0,70.2,73.1,70.1,67.0,91,85,62,29.92,29.83,7,1,27,0.33
2012-7-29,78.8,74.0,70.3,68.6,67.3,65.9,88,80,69,30.02,29.88,7,0,27,0.00
2012-7-30,79.7,74.9,70.3,69.0,67.0,65.4,86,77,69,30.09,30.01,0,0,19,0.00
2012-7-31,77.9,74.4,71.4,67.9,66.4,65.2,82,76,68,30.07,29.88,7,0,27,0.00
2012-8-1,79.9,75.5,73.0,72.3,69.8,67.6,91,83,75,29.91,29.81,0,0,3,0.02
2012-8-2,87.8,80.8,73.8,74.1,71.4,68.7,87,74,59,29.88,29.80,0,0,8,0.00
2012-8-3,90.0,84.3,77.9,77.0,73.7,69.5,84,71,58,30.07,29.88,0,0,4,0.00
2012-8-4,89.1,82.8,78.6,78.1,74.0,69.7,86,75,56,30.17,30.06,0,0,9,0.00
2012-8-5,91.4,83.1,76.1,77.2,74.9,70.8,87,77,59,30.16,29.91,3,0,10,0.02
2012-8-6,85.3,80.4,76.3,73.0,67.6,59.9,88,67,47,29.99,29.91,7,0,14,0.00
2012-8-7,84.2,78.4,73.2,68.2,63.6,59.8,72,61,52,29.99,29.93,3,0,22,0.00
2012-8-8,86.7,80.5,75.9,74.0,71.4,67.7,87,75,57,29.97,29.88,3,0,10,0.00
2012-8-9,87.1,81.2,76.8,74.1,72.7,69.5,87,76,58,29.93,29.83,3,0,10,0.00
2012-8-10,81.1,78.5,72.3,75.2,73.1,67.2,88,84,76,29.87,29.72,7,0,14,0.02
2012-8-11,86.2,81.2,77.4,75.8,73.4,71.7,87,78,66,29.88,29.76,0,0,8,0.00
2012-8-12,85.6,80.2,75.9,72.1,66.9,63.3,83,65,51,29.93,29.85,0,0,25,0.00
2012-8-13,85.3,78.6,72.5,65.4,62.7,61.5,71,59,46,29.98,29.90,3,0,11,0.00
2012-8-14,80.4,77.9,75.9,68.8,64.8,61.0,71,64,56,29.94,29.92,0,0,4,0.00
2012-8-15,80.2,75.0,69.6,72.5,69.5,65.1,90,83,76,29.87,29.79,7,0,24,0.32
2012-8-16,84.0,76.3,70.3,67.8,65.0,61.2,90,70,48,29.88,29.82,0,0,22,0.00
2012-8-17,87.6,80.9,75.0,69.6,65.8,61.9,69,61,52,29.86,29.73,0,0,10,0.00
2012-8-18,78.1,71.9,64.9,66.7,60.8,55.1,87,69,49,29.91,29.81,10,0,28,0.11
2012-8-19,76.3,72.4,67.5,58.2,56.3,52.6,72,57,46,29.96,29.88,0,0,27,0.00
2012-8-20,79.7,74.5,70.0,63.6,60.6,57.5,71,62,51,29.90,29.81,0,0,7,0.00
2012-8-21,80.8,74.6,69.3,63.7,61.4,57.2,75,64,49,30.06,29.90,3,0,25,0.00
2012-8-22,81.1,76.3,71.4,67.7,64.4,61.5,78,67,54,30.11,30.05,0,0,12,0.00
2012-8-23,83.5,77.4,72.9,68.0,65.6,63.2,78,67,55,30.13,30.06,0,0,11,0.00
2012-8-24,84.0,78.7,73.2,67.1,65.1,61.9,76,64,48,30.15,30.08,0,0,10,0.00
2012-8-25,81.1,77.5,73.0,71.2,67.4,62.6,86,71,55,30.25,30.15,10,0,27,0.00
2012-8-26,79.2,74.1,70.2,67.5,65.5,63.1,83,75,64,30.30,30.19,10,1,24,0.00
2012-8-27,82.0,76.0,72.3,74.0,70.1,65.9,89,82,71,30.21,29.92,0,0,6,0.02
2012-8-28,84.9,79.7,75.2,73.5,68.6,62.2,91,71,48,29.93,29.77,3,0,11,0.00
2012-8-29,78.1,73.1,68.2,62.4,56.7,52.1,72,57,49,29.99,29.87,10,1,25,0.00
2012-8-30,80.8,73.7,66.7,60.1,55.4,50.1,67,54,37,30.07,29.98,0,0,22,0.00
2012-8-31,88.0,80.7,73.2,66.8,62.9,59.1,70,56,42,30.02,29.86,0,0,24,0.00
2012-9-1,87.4,81.3,75.9,70.4,67.1,63.9,79,63,48,30.03,29.88,10,0,27,0.00
2012-9-2,81.9,76.8,72.7,70.7,68.7,66.2,83,76,65,30.06,29.98,3,0,8,0.00
2012-9-3,78.1,74.4,71.8,70.8,66.8,63.2,88,78,61,30.14,30.05,10,0,25,0.00
2012-9-4,79.7,75.5,72.0,75.0,71.4,66.7,93,87,81,30.07,29.81,3,0,11,0.00
2012-9-5,81.9,78.4,76.5,76.7,72.1,66.9,90,81,69,29.82,29.73,0,0,19,0.00
2012-9-6,80.8,76.1,72.1,70.9,68.4,66.1,83,77,67,29.88,29.79,0,0,22,0.00
2012-9-7,85.8,80.0,74.3,74.6,71.1,68.8,85,75,67,29.90,29.81,3,0,22,0.00
2012-9-8,82.6,76.2,68.5,75.8,70.0,61.4,92,81,68,29.84,29.53,7,0,14,0.06
2012-9-9,75.4,70.1,65.8,61.9,58.6,55.6,80,68,51,29.86,29.74,0,0,22,0.00
2012-9-10,71.4,66.0,60.6,58.3,51.5,45.5,76,61,46,30.12,29.85,10,0,27,0.00
2012-9-11,71.8,64.3,57.6,54.7,47.9,44.6,68,56,43,30.25,30.11,10,0,11,0.00
2012-9-12,76.3,70.2,64.6,58.8,55.2,51.9,69,59,49,30.33,30.25,0,0,7,0.00
2012-9-13,76.8,71.7,66.7,62.1,59.6,56.0,74,66,56,30.34,30.25,0,0,6,0.00
2012-9-14,76.8,71.5,67.6,63.7,61.6,59.4,80,71,57,30.25,30.05,0,0,24,0.00
2012-9-15,71.2,67.5,62.1,63.1,54.4,50.0,78,64,51,30.11,30.02,7,0,27,0.00
2012-9-16,72.7,66.9,60.6,54.0,51.6,50.0,69,58,48,30.11,29.99,0,0,27,0.00
2012-9-17,74.8,68.8,62.8,60.2,53.9,50.1,72,59,47,30.09,29.99,0,0,4,0.00
2012-9-18,75.9,72.4,68.7,70.8,67.6,60.9,93,85,73,30.00,29.60,7,0,24,0.10
2012-9-19,69.8,65.3,61.7,67.0,51.6,45.6,92,63,46,30.15,29.70,3,0,18,0.00
2012-9-20,67.8,62.5,57.4,58.0,52.6,44.9,79,70,57,30.19,30.08,7,0,24,0.00
2012-9-21,71.4,65.9,61.5,58.3,56.1,52.7,81,71,53,30.10,29.98,7,0,27,0.00
2012-9-22,74.1,67.9,61.7,67.6,62.0,57.0,88,82,73,29.98,29.75,3,0,27,0.04
2012-9-23,67.8,63.5,57.9,62.5,49.9,44.4,84,62,48,30.09,29.82,7,0,26,0.00
2012-9-24,64.6,60.5,55.6,47.1,44.7,42.7,71,56,47,30.14,30.06,0,0,14,0.00
2012-9-25,70.7,64.2,58.8,56.6,49.6,42.9,74,59,52,30.17,30.09,0,0,8,0.00
2012-9-26,74.7,69.4,65.1,64.1,60.5,56.4,77,73,68,30.12,29.98,0,0,4,0.00
2012-9-27,74.7,70.5,67.3,63.4,62.1,60.3,84,75,64,30.14,30.01,3,0,14,0.00
2012-9-28,69.4,66.3,62.2,67.6,62.9,58.6,95,89,76,30.14,29.91,7,0,25,0.29
2012-9-29,64.6,61.8,59.0,58.3,55.9,54.2,88,81,72,29.92,29.83,7,0,22,0.00
2012-9-30,66.0,61.4,57.9,55.5,53.2,48.6,86,75,60,29.85,29.74,3,0,22,0.00
2012-10-1,69.1,62.4,55.6,54.2,50.8,47.9,76,66,59,29.94,29.79,0,0,10,0.00
2012-10-2,69.6,65.2,62.4,63.3,57.4,52.2,95,77,61,30.00,29.93,7,0,25,0.12
2012-10-3,72.5,67.3,63.7,70.2,65.6,62.5,98,95,90,30.10,29.94,0,0,19,0.00
2012-10-4,74.1,71.3,68.7,70.0,68.1,66.0,95,90,85,30.11,30.00,3,0,22,0.00
2012-10-5,75.9,70.5,65.3,65.9,61.7,59.4,89,74,59,30.04,29.91,0,0,6,0.00
2012-10-6,77.2,68.2,57.4,63.6,57.7,45.7,78,69,62,29.97,29.72,7,0,27,0.00
2012-10-7,57.4,53.9,50.7,46.9,43.8,39.4,82,69,59,30.09,29.97,0,0,10,0.00
2012-10-8,56.8,52.3,47.7,45.7,43.4,41.5,81,72,62,30.25,30.08,0,0,10,0.00
2012-10-9,58.1,55.2,51.6,54.2,49.9,44.8,91,83,72,30.21,30.05,7,0,27,0.06
2012-10-10,65.5,59.0,52.9,59.0,52.9,42.8,95,81,58,30.05,29.77,7,0,27,0.33
2012-10-11,57.9,54.0,48.9,42.3,39.0,36.3,69,57,48,30.18,29.93,3,0,9,0.00
2012-10-12,56.1,52.4,45.5,42.8,38.7,29.6,69,60,50,30.40,30.03,7,0,24,0.00
2012-10-13,53.2,47.6,42.4,44.0,31.4,26.6,71,54,41,30.50,30.27,3,0,9,0.00
2012-10-14,69.6,61.4,53.4,57.5,51.6,44.2,79,71,57,30.28,29.93,0,0,5,0.00
2012-10-15,72.3,66.4,62.6,62.4,59.6,56.0,89,79,71,29.92,29.60,0,0,4,0.00
2012-10-16,62.4,55.9,52.0,56.1,42.9,38.6,80,62,54,29.89,29.63,3,0,27,0.00
2012-10-17,60.6,54.4,48.6,47.7,42.5,38.1,70,64,56,29.99,29.89,0,0,7,0.00
2012-10-18,63.3,59.1,53.2,57.7,51.0,45.5,82,75,67,30.02,29.92,3,0,22,0.00
2012-10-19,66.7,64.7,62.2,64.5,62.4,57.9,95,93,82,29.92,29.64,3,0,25,0.14
2012-10-20,67.5,62.7,58.3,63.6,54.8,44.1,95,77,56,29.80,29.62,0,0,7,0.00
2012-10-21,64.0,58.0,52.3,46.0,44.0,42.4,72,60,48,30.00,29.80,3,0,9,0.00
2012-10-22,65.8,60.0,53.2,47.7,45.3,42.6,69,59,50,30.08,29.98,7,0,9,0.00
2012-10-23,66.4,61.1,58.8,54.3,49.5,45.6,85,66,56,30.10,30.03,0,0,3,0.00
2012-10-24,59.0,58.0,57.0,55.1,53.7,52.1,89,86,81,30.17,30.06,3,0,10,0.00
2012-10-25,62.4,59.3,56.5,54.8,52.6,50.2,84,78,73,30.25,30.17,0,0,3,0.00
2012-10-26,66.0,62.4,59.5,57.9,55.8,53.3,85,79,74,30.21,30.09,0,0,0,0.00
2012-10-27,64.8,62.6,60.1,57.4,55.8,53.2,85,79,72,30.09,29.88,10,1,28,0.00
2012-10-28,59.9,58.1,56.5,54.4,49.9,46.2,82,74,67,29.89,29.62,29,6,29,0.00
2012-10-29,61.9,57.3,54.5,60.4,52.7,47.8,95,85,75,29.63,28.50,49,9,49,1.50
2012-10-30,56.1,54.3,49.8,50.8,48.1,42.5,85,80,75,29.46,28.92,13,1,27,0.02
2012-10-31,51.6,48.6,46.8,42.5,40.1,38.7,77,72,67,29.56,29.44,10,0,25,0.00
2012-11-1,52.5,48.9,45.3,42.2,40.1,37.9,76,71,67,29.58,29.53,3,0,25,0.00
2012-11-2,52.7,49.0,44.6,41.1,38.4,34.0,75,67,55,29.73,29.57,10,0,28,0.00
2012-11-3,50.4,45.6,42.6,35.6,33.8,32.0,69,63,56,29.92,29.72,10,2,27,0.00
2012-11-4,49.1,44.3,40.8,35.8,33.5,31.9,72,66,59,29.96,29.88,13,1,27,0.00
2012-11-5,44.4,41.2,37.2,32.5,27.7,22.1,65,58,53,30.14,29.93,13,2,28,0.00
2012-11-6,40.6,37.8,34.3,27.5,22.7,20.3,63,54,48,30.22,30.05,10,2,27,0.00
2012-11-7,41.5,36.5,32.4,32.9,29.8,23.8,91,77,55,30.04,29.74,22,5,28,1.50
2012-11-8,48.7,41.1,33.6,31.2,28.7,26.8,88,62,49,29.88,29.70,13,3,27,0.88
2012-11-9,52.7,44.8,37.9,35.9,30.1,24.9,65,56,44,30.17,29.88,7,2,28,0.00
2012-11-10,55.0,50.1,45.5,43.4,39.8,35.5,72,68,62,30.40,30.16,3,0,25,0.00
2012-11-11,60.1,55.0,49.3,51.6,48.6,42.0,88,79,71,30.46,30.38,3,0,19,0.00
2012-11-12,63.1,57.3,50.0,58.3,53.8,47.1,92,88,80,30.44,30.17,7,0,25,0.00
2012-11-13,60.6,50.0,41.7,57.6,42.9,30.2,91,77,63,30.41,30.09,10,2,27,0.04
2012-11-14,46.2,42.1,39.0,32.7,29.4,27.3,67,61,54,30.49,30.41,13,2,27,0.00
2012-11-15,44.2,41.3,37.8,32.1,29.6,26.3,71,63,57,30.43,30.27,13,2,27,0.00
2012-11-16,46.0,42.8,39.9,30.9,29.9,28.7,68,60,53,30.42,30.26,10,2,27,0.00
2012-11-17,50.5,45.4,40.8,35.6,32.4,28.9,66,60,55,30.61,30.42,10,2,28,0.00
2012-11-18,46.9,43.9,39.9,38.0,34.5,30.4,75,69,61,30.66,30.54,13,2,27,0.00
2012-11-19,46.9,43.4,38.8,40.1,36.4,32.2,79,76,73,30.54,30.22,13,2,28,0.00
2012-11-20,48.9,45.1,41.7,37.0,35.4,33.9,76,69,62,30.22,30.08,7,1,27,0.00
2012-11-21,51.1,47.0,43.2,38.1,35.5,33.0,72,64,54,30.20,30.11,10,1,27,0.00
2012-11-22,52.0,47.4,43.7,42.2,39.3,34.7,82,73,64,30.25,30.11,7,1,25,0.00
2012-11-23,52.9,49.4,45.7,46.6,43.5,41.1,84,80,71,30.10,29.66,0,0,19,0.00
2012-11-24,50.7,42.8,37.2,44.5,28.0,21.6,80,56,48,29.82,29.63,13,2,27,0.00
2012-11-25,42.1,38.6,35.8,26.7,23.9,20.2,59,55,52,29.93,29.81,7,1,24,0.00
2012-11-26,46.6,42.5,38.1,28.6,26.0,24.8,59,52,45,30.22,29.92,7,1,27,0.00
2012-11-27,43.0,39.0,35.2,34.1,30.6,25.1,89,73,50,30.27,30.17,13,2,28,0.39
2012-11-28,41.2,38.0,36.5,32.9,28.3,25.0,82,68,58,30.25,30.14,13,1,28,0.00
2012-11-29,42.1,39.6,36.3,29.3,27.2,24.2,64,61,57,30.33,30.24,7,0,27,0.00
2012-11-30,45.7,42.5,39.0,35.8,31.0,27.6,78,64,55,30.42,30.27,16,2,27,0.00
2012-12-1,41.2,39.3,37.4,37.9,34.5,30.9,88,83,75,30.50,30.40,19,4,28,0.00
2012-12-2,51.1,46.0,41.2,47.1,42.8,37.9,93,89,83,30.39,30.10,3,0,27,0.00
2012-12-3,59.4,54.5,49.8,50.2,47.5,43.9,88,78,66,30.24,30.07,7,0,27,0.00
2012-12-4,58.8,52.5,48.0,54.3,48.7,43.1,92,87,78,30.25,29.95,3,0,27,0.00
2012-12-5,57.4,50.5,36.9,52.7,39.6,23.3,90,67,51,30.20,29.87,10,1,28,0.00
2012-12-6,39.9,35.9,31.3,24.9,21.8,18.5,61,56,50,30.34,30.18,10,1,27,0.00
2012-12-7,46.9,42.4,37.2,43.8,36.1,24.5,89,78,58,30.25,29.99,3,0,27,0.02
2012-12-8,50.4,47.4,44.6,48.0,45.0,42.4,94,91,89,29.99,29.83,3,0,27,0.06
2012-12-9,50.7,46.3,42.6,48.5,41.8,36.0,92,85,71,30.22,29.97,16,2,28,0.18
2012-12-10,58.6,52.9,44.2,57.5,51.5,42.0,97,95,92,29.99,29.52,7,0,27,0.00
2012-12-11,58.5,46.7,42.1,56.8,37.2,30.1,94,70,60,30.17,29.55,13,2,27,0.00
2012-12-12,43.3,41.0,38.5,30.7,28.0,26.6,65,60,55,30.41,30.16,7,1,27,0.00
2012-12-13,43.7,41.4,39.4,29.9,28.5,27.4,66,60,54,30.44,30.29,10,1,27,0.00
2012-12-14,47.7,43.1,39.4,31.0,29.2,27.1,64,58,51,30.29,30.11,7,0,27,0.00
2012-12-15,45.5,43.3,40.8,34.5,32.0,29.9,69,64,58,30.30,30.18,10,1,27,0.00
2012-12-16,47.8,44.9,42.6,43.2,40.2,34.5,93,84,68,30.19,29.89,16,4,28,0.49
2012-12-17,43.5,42.0,40.5,41.9,39.9,38.4,94,92,91,29.89,29.61,25,5,27,0.37
2012-12-18,53.2,47.9,43.5,49.4,44.0,36.8,96,87,71,29.60,29.42,13,1,27,0.41
2012-12-19,46.6,43.6,40.8,36.6,32.4,28.4,74,65,56,30.09,29.57,10,1,27,0.00
2012-12-20,46.8,41.0,37.6,42.2,31.6,26.9,84,69,62,30.19,29.79,10,1,27,0.00
2012-12-21,55.9,47.1,39.0,53.9,40.8,30.2,94,79,67,29.76,29.08,13,1,27,0.24
2012-12-22,39.9,38.5,37.6,31.7,27.0,22.5,78,63,53,29.78,29.29,7,2,27,0.00
2012-12-23,41.4,39.1,36.5,28.8,25.8,22.6,66,59,48,29.93,29.79,7,0,27,0.00
2012-12-24,39.9,37.5,34.3,32.2,25.8,23.3,88,63,54,30.06,29.91,7,1,27,0.04
2012-12-25,41.5,37.8,34.2,35.0,31.7,25.9,91,79,67,30.22,29.88,10,2,27,0.06
2012-12-26,39.9,33.4,29.7,38.3,28.1,21.4,94,81,70,30.25,29.45,35,10,38,1.50
2012-12-27,40.5,37.5,31.6,38.4,32.7,23.0,94,83,70,29.81,29.25,29,6,35,1.50
2012-12-28,36.5,33.5,31.3,26.8,24.7,22.0,75,70,67,30.05,29.80,13,2,27,0.00
2012-12-29,35.2,33.3,31.8,32.6,28.3,24.8,90,82,73,30.02,29.47,10,2,26,0.25
2012-12-30,34.9,32.3,29.3,29.0,21.1,17.5,84,63,52,30.14,29.55,13,2,27,0.00
2012-12-31,39.6,34.9,29.5,27.3,23.3,18.2,67,62,58,30.16,29.84,3,0,25,0.00
2013-1-1,41.4,37.9,28.6,31.3,26.5,14.9,68,63,55,29.98,29.79,10,1,27,0.00